»·PEaware :: N733TR KBFI-KBLI

N733TR :: KBFI-KBLI

FLIGHT INFORMATION

Flight Status: Arrived
Operator: Privately registered:
United States
More flights under this callsign
Pilot: Jonathan B. (787)
Aircraft: CIRRUS SR-22 TURBO
(S22T)
More flights by this aircraft type
Origin: KBFI Boeing Field/King Co Intl
United States
Destination: KBLI Bellingham Intl
United States
More flights between these airports :: More routes between these airports
Route: NEEDL1 PAE V23 HUH
File this flight plan on PilotEdge
Remarks:
Altitude:
(Current/Filed)
6,000ft
Speed:
(Current/Filed)
170kts
Departed: 15-Oct-23 02:06 PM
Arrived: 15-Oct-23 02:47 PM
Distance/Time
Traveled:
76nm/0:41
Distance/Time
To Go:
Arrived

Flight Plot

Page will automatically refresh every two minutes.

Flight plan parsing failed; only flown route is shown


Map Options




Map Legend


Flown Route
Filed Route
Departure Airport
Arrival Airport
Navaid (VOR, NDB)
Fix

Horizontal Profiles

Position Reports

Time Latitude Longitude Heading Altitude Ground
Speed
15-Oct-23 13:51 47.520535 -122.296819 1 17ft 0kts
15-Oct-23 13:52 47.520535 -122.296819 1 17ft 0kts
15-Oct-23 13:53 47.520535 -122.296819 1 17ft 0kts
15-Oct-23 13:54 47.520535 -122.296819 1 17ft 0kts
15-Oct-23 13:55 47.520535 -122.296819 1 17ft 0kts
15-Oct-23 13:56 47.520535 -122.296819 1 17ft 0kts
15-Oct-23 13:57 47.520535 -122.296819 1 17ft 0kts
15-Oct-23 13:58 47.520535 -122.296819 1 17ft 0kts
15-Oct-23 13:59 47.520535 -122.296819 1 17ft 0kts
15-Oct-23 14:00 47.519189 -122.294897 153 19ft 21kts
15-Oct-23 14:01 47.516669 -122.292591 61 19ft 0kts
15-Oct-23 14:02 47.516669 -122.292591 61 19ft 0kts
15-Oct-23 14:03 47.516669 -122.292591 61 19ft 0kts
15-Oct-23 14:04 47.517653 -122.292115 338 20ft 16kts
15-Oct-23 14:05 47.537317 -122.305495 335 881ft 105kts
15-Oct-23 14:06 47.568645 -122.325830 334 2182ft 141kts
15-Oct-23 14:07 47.611350 -122.350309 0 2197ft 173kts
15-Oct-23 14:08 47.651402 -122.343099 10 3871ft 133kts
15-Oct-23 14:09 47.689014 -122.334036 12 4504ft 143kts
15-Oct-23 14:10 47.729296 -122.324227 12 5107ft 148kts
15-Oct-23 14:11 47.770960 -122.314119 12 5667ft 154kts
15-Oct-23 14:12 47.814494 -122.303532 11 6112ft 167kts
15-Oct-23 14:13 47.862375 -122.291929 12 6115ft 178kts
15-Oct-23 14:14 47.911673 -122.279920 12 6116ft 179kts
15-Oct-23 14:15 47.961816 -122.289994 350 6108ft 182kts
15-Oct-23 14:16 48.011505 -122.304385 350 6127ft 182kts
15-Oct-23 14:17 48.061058 -122.318790 349 6118ft 179kts
15-Oct-23 14:18 48.110652 -122.333144 349 6117ft 180kts
15-Oct-23 14:19 48.159997 -122.347529 349 6118ft 181kts
15-Oct-23 14:20 48.208584 -122.361666 349 6119ft 184kts
15-Oct-23 14:21 48.258882 -122.376357 350 6082ft 183kts
15-Oct-23 14:22 48.308801 -122.390903 350 6072ft 181kts
15-Oct-23 14:23 48.358262 -122.405317 350 6076ft 180kts
15-Oct-23 14:24 48.407616 -122.419764 349 6068ft 180kts
15-Oct-23 14:25 48.456522 -122.434163 349 6066ft 179kts
15-Oct-23 14:26 48.505744 -122.448641 350 6072ft 180kts
15-Oct-23 14:27 48.554827 -122.463102 350 6079ft 179kts
15-Oct-23 14:28 48.603970 -122.478802 353 6069ft 181kts
15-Oct-23 14:29 48.653563 -122.477839 355 6080ft 179kts
15-Oct-23 14:30 48.703177 -122.486593 353 5593ft 178kts
15-Oct-23 14:31 48.746550 -122.519007 292 4469ft 204kts
15-Oct-23 14:32 48.715042 -122.561417 177 3750ft 164kts
15-Oct-23 14:33 48.669612 -122.555812 172 3038ft 159kts
15-Oct-23 14:34 48.626228 -122.572015 191 3041ft 161kts
15-Oct-23 14:35 48.582738 -122.589640 191 3034ft 161kts
15-Oct-23 14:36 48.539296 -122.605708 169 3050ft 158kts
15-Oct-23 14:37 48.546361 -122.568968 4 3049ft 157kts
15-Oct-23 14:38 48.584198 -122.540026 13 3052ft 155kts
15-Oct-23 14:39 48.626623 -122.536911 1 2335ft 146kts
15-Oct-23 14:40 48.661812 -122.537006 2 2216ft 106kts
15-Oct-23 14:41 48.686322 -122.537123 0 2102ft 92kts
15-Oct-23 14:42 48.713581 -122.537207 3 1578ft 97kts
15-Oct-23 14:43 48.740015 -122.537342 2 1046ft 93kts
15-Oct-23 14:44 48.765213 -122.537414 5 600ft 91kts
15-Oct-23 14:45 48.788560 -122.537475 0 158ft 42kts
15-Oct-23 14:46 48.791323 -122.535308 117 156ft 0kts
15-Oct-23 14:47 48.791309 -122.535258 106 156ft 0kts
15-Oct-23 14:48 48.791305 -122.535185 85 156ft 0kts

Navigation Log

Ident Type
Flight plan parsing failed, navigation log unavailable